createdAt,value
2022-11-16T00:00:34.734Z,7.72
2022-11-16T00:03:36.287Z,8.07
2022-11-16T00:06:37.895Z,8.15
2022-11-16T00:09:39.492Z,7.78
2022-11-16T00:12:41.017Z,7.60
2022-11-16T00:15:42.532Z,7.82
2022-11-16T00:18:44.932Z,7.85
2022-11-16T00:21:46.573Z,7.22
2022-11-16T00:24:48.070Z,7.45
2022-11-16T00:27:49.577Z,7.60
2022-11-16T00:30:59.147Z,7.38
2022-11-16T00:34:00.710Z,7.37
2022-11-16T00:37:02.240Z,7.72
2022-11-16T00:40:04.179Z,7.55
2022-11-16T00:43:05.704Z,7.60
2022-11-16T00:46:07.310Z,7.65
2022-11-16T00:49:09.635Z,7.53
2022-11-16T00:52:11.332Z,7.60
2022-11-16T00:55:12.850Z,7.75
2022-11-16T00:58:15.157Z,7.53
2022-11-16T01:01:19.509Z,8.27
2022-11-16T01:04:21.152Z,7.90
2022-11-16T01:07:22.752Z,8.07
2022-11-16T01:10:26.822Z,8.38
2022-11-16T01:13:28.376Z,8.07
2022-11-16T01:16:29.985Z,7.57
2022-11-16T01:19:32.024Z,7.90
2022-11-16T01:22:37.573Z,7.55
2022-11-16T01:25:39.120Z,7.80
2022-11-16T01:28:40.650Z,8.30
2022-11-16T01:31:42.864Z,7.88
2022-11-16T01:34:44.453Z,7.70
2022-11-16T01:37:57.350Z,8.00
2022-11-16T01:40:59.121Z,7.80
2022-11-16T01:44:06.555Z,7.90
2022-11-16T01:47:17.882Z,8.02
2022-11-16T01:50:20.963Z,7.60
2022-11-16T01:53:26.135Z,8.18
2022-11-16T01:56:32.814Z,8.30
2022-11-16T01:59:45.799Z,7.78
2022-11-16T02:02:52.104Z,7.63
2022-11-16T02:06:32.832Z,7.80
2022-11-16T02:10:05.896Z,7.80
2022-11-16T02:13:28.531Z,7.50
2022-11-16T02:16:48.365Z,8.20
2022-11-16T02:20:24.366Z,8.13
2022-11-16T02:23:50.187Z,8.00
2022-11-16T02:27:27.087Z,8.85
2022-11-16T02:30:29.620Z,8.30
2022-11-16T02:33:36.336Z,8.95
2022-11-16T02:36:42.162Z,7.72
2022-11-16T02:39:47.299Z,8.53
2022-11-16T02:43:04.927Z,7.97
2022-11-16T02:46:16.033Z,8.35
2022-11-16T02:49:19.624Z,7.60
2022-11-16T02:52:23.044Z,7.80
2022-11-16T02:55:27.382Z,8.00
2022-11-16T02:58:30.051Z,8.60
2022-11-16T03:01:37.023Z,7.75
2022-11-16T03:04:47.290Z,8.52
2022-11-16T03:07:55.164Z,8.75
2022-11-16T03:11:23.984Z,7.90
2022-11-16T03:14:43.948Z,8.18
2022-11-16T03:17:50.158Z,8.20
2022-11-16T03:21:04.938Z,8.40
2022-11-16T03:24:07.607Z,7.72
2022-11-16T03:27:36.089Z,8.52
2022-11-16T03:30:43.572Z,8.48
2022-11-16T03:33:53.976Z,8.40
2022-11-16T03:37:00.345Z,8.60
2022-11-16T03:40:04.627Z,7.75
2022-11-16T03:43:08.571Z,8.53
2022-11-16T03:46:10.440Z,8.60
2022-11-16T03:49:12.276Z,8.07
2022-11-16T03:52:17.671Z,8.87
2022-11-16T03:55:19.819Z,8.25
2022-11-16T03:58:21.894Z,8.88
2022-11-16T04:01:23.543Z,9.10
2022-11-16T04:04:44.546Z,9.30
2022-11-16T04:08:07.029Z,8.60
2022-11-16T04:11:37.988Z,8.00
2022-11-16T04:14:58.765Z,8.33
2022-11-16T04:18:22.020Z,8.73
2022-11-16T04:21:47.520Z,8.38
2022-11-16T04:24:56.204Z,8.00
2022-11-16T04:28:14.224Z,9.15
2022-11-16T04:31:38.879Z,9.00
2022-11-16T04:35:04.020Z,9.52
2022-11-16T04:38:05.665Z,8.45
2022-11-16T04:41:29.536Z,9.05
2022-11-16T04:44:54.215Z,9.20
2022-11-16T04:47:58.629Z,9.20
2022-11-16T04:51:05.005Z,9.15
2022-11-16T04:54:07.899Z,8.98
2022-11-16T04:57:09.460Z,9.00
2022-11-16T05:00:11.760Z,9.20
2022-11-16T05:03:14.675Z,9.68
2022-11-16T05:06:19.321Z,10.20
2022-11-16T05:09:21.149Z,10.23
2022-11-16T05:12:25.192Z,10.13
2022-11-16T05:15:30.913Z,10.32
2022-11-16T05:18:34.468Z,9.33
2022-11-16T05:21:37.140Z,9.38
2022-11-16T05:24:38.920Z,9.20
2022-11-16T05:27:41.242Z,9.03
2022-11-16T05:30:45.748Z,8.68
2022-11-16T05:33:52.139Z,8.85
2022-11-16T05:36:54.990Z,9.15
2022-11-16T05:39:57.074Z,8.98
2022-11-16T05:43:07.403Z,9.35
2022-11-16T05:46:14.622Z,9.52
2022-11-16T05:49:16.566Z,8.30
2022-11-16T05:52:19.154Z,9.35
2022-11-16T05:55:20.941Z,9.50
2022-11-16T05:58:23.311Z,8.97
2022-11-16T06:01:26.498Z,8.85
2022-11-16T06:04:28.270Z,9.38
2022-11-16T06:07:30.209Z,9.77
2022-11-16T06:10:33.321Z,10.88
2022-11-16T06:13:35.978Z,12.38
2022-11-16T06:16:37.841Z,12.45
2022-11-16T06:19:42.470Z,11.90
2022-11-16T06:22:44.043Z,12.40
2022-11-16T06:25:46.489Z,11.27
2022-11-16T06:28:48.325Z,10.30
2022-11-16T06:31:50.101Z,10.00
2022-11-16T06:34:51.916Z,10.68
2022-11-16T06:37:53.638Z,10.38
2022-11-16T06:44:20.549Z,11.07
2022-11-16T06:47:30.459Z,11.90
2022-11-16T06:50:32.770Z,12.03
2022-11-16T06:53:34.502Z,11.77
2022-11-16T06:56:37.083Z,11.52
2022-11-16T06:59:38.712Z,11.70
2022-11-16T07:02:40.599Z,11.10
2022-11-16T07:05:45.786Z,11.27
2022-11-16T07:08:51.126Z,11.05
2022-11-16T07:11:58.423Z,12.00
2022-11-16T07:15:00.059Z,11.60
2022-11-16T07:18:07.949Z,12.35
2022-11-16T07:21:14.726Z,12.57
2022-11-16T07:24:17.089Z,14.27
2022-11-16T07:27:18.693Z,13.60
2022-11-16T07:30:23.886Z,13.50
2022-11-16T07:33:35.117Z,13.23
2022-11-16T07:36:59.696Z,13.52
2022-11-16T07:40:02.042Z,13.18
2022-11-16T07:43:05.325Z,11.90
2022-11-16T07:49:49.350Z,11.68
2022-11-16T07:52:55.802Z,10.80
2022-11-16T07:55:57.989Z,11.18
2022-11-16T07:59:01.568Z,10.55
2022-11-16T08:02:10.252Z,10.53
2022-11-16T08:05:13.926Z,10.15
2022-11-16T08:08:16.391Z,10.40
2022-11-16T08:11:18.121Z,11.15
2022-11-16T08:14:19.838Z,10.65
2022-11-16T08:17:24.159Z,10.15
2022-11-16T08:20:27.510Z,10.30
2022-11-16T08:23:30.496Z,11.07
2022-11-16T08:26:33.143Z,10.50
2022-11-16T08:29:40.779Z,10.00
2022-11-16T08:32:45.496Z,9.97
2022-11-16T08:35:48.483Z,9.98
2022-11-16T08:38:51.154Z,9.75
2022-11-16T08:41:54.050Z,10.23
2022-11-16T08:44:55.746Z,9.90
2022-11-16T08:48:03.354Z,10.23
2022-11-16T08:51:17.972Z,9.88
2022-11-16T08:54:28.091Z,9.50
2022-11-16T08:57:29.968Z,9.93
2022-11-16T09:00:34.809Z,9.55
2022-11-16T09:03:37.971Z,9.40
2022-11-16T09:06:39.520Z,10.40
2022-11-16T09:09:41.031Z,9.43
2022-11-16T09:12:42.817Z,10.18
2022-11-16T09:15:44.944Z,9.63
2022-11-16T09:18:48.307Z,10.35
2022-11-16T09:21:50.412Z,9.25
2022-11-16T09:24:51.948Z,9.30
2022-11-16T09:27:55.511Z,9.15
2022-11-16T09:31:01.978Z,8.32
2022-11-16T09:34:03.767Z,9.83
2022-11-16T09:37:05.330Z,8.93
2022-11-16T09:40:07.579Z,9.00
2022-11-16T09:43:28.047Z,8.57
2022-11-16T09:46:35.751Z,8.15
2022-11-16T09:49:47.462Z,8.50
2022-11-16T09:52:51.395Z,8.40
2022-11-16T09:55:56.521Z,8.80
2022-11-16T09:59:27.618Z,8.93
2022-11-16T10:02:43.189Z,8.50
2022-11-16T10:06:01.214Z,9.00
2022-11-16T10:09:02.947Z,8.65
2022-11-16T10:12:21.120Z,8.23
2022-11-16T10:15:56.793Z,8.43
2022-11-16T10:19:53.871Z,7.65
2022-11-16T10:23:11.515Z,7.80
2022-11-16T10:26:32.067Z,8.20
2022-11-16T10:29:55.970Z,7.93
2022-11-16T10:33:08.060Z,7.72
2022-11-16T10:36:15.894Z,7.78
2022-11-16T10:39:20.419Z,7.38
2022-11-16T10:42:34.851Z,6.80
2022-11-16T10:45:43.049Z,6.80
2022-11-16T10:49:16.395Z,6.57
2022-11-16T10:52:18.168Z,6.80
2022-11-16T10:55:21.698Z,6.00
2022-11-16T10:58:23.211Z,5.72
2022-11-16T11:01:27.783Z,5.37
2022-11-16T11:04:32.767Z,4.75
2022-11-16T11:07:38.121Z,4.20
2022-11-16T11:10:42.832Z,3.90
2022-11-16T11:13:44.396Z,4.20
2022-11-16T11:16:45.931Z,4.15
2022-11-16T11:20:16.202Z,4.07
2022-11-16T11:23:19.987Z,5.30
2022-11-16T11:26:35.941Z,3.70
2022-11-16T11:29:42.345Z,3.42
2022-11-16T11:32:44.915Z,3.45
2022-11-16T11:36:06.556Z,3.27
2022-11-16T11:39:28.839Z,3.15
2022-11-16T11:42:30.674Z,3.20
2022-11-16T11:45:45.322Z,3.30
2022-11-16T11:48:55.226Z,3.05
2022-11-16T11:52:03.257Z,3.22
2022-11-16T11:55:07.513Z,3.03
2022-11-16T11:58:18.205Z,2.70
2022-11-16T12:01:28.840Z,3.00
2022-11-16T12:04:58.275Z,2.42
2022-11-16T12:08:02.548Z,2.67
2022-11-16T12:11:39.375Z,2.80
2022-11-16T12:15:13.527Z,2.80
2022-11-16T12:18:14.992Z,2.47
2022-11-16T12:21:19.248Z,2.63
2022-11-16T12:24:47.049Z,2.38
2022-11-16T12:28:09.654Z,2.20
2022-11-16T12:31:48.243Z,2.13
2022-11-16T12:35:44.016Z,2.20
2022-11-16T12:39:09.071Z,2.45
2022-11-16T12:42:29.184Z,2.33
2022-11-16T12:45:52.604Z,2.30
2022-11-16T12:49:24.245Z,2.47
2022-11-16T12:53:23.033Z,3.60
2022-11-16T12:56:34.240Z,3.88
2022-11-16T13:00:01.624Z,3.88
2022-11-16T13:03:12.073Z,3.40
2022-11-16T13:06:20.183Z,2.97
2022-11-16T13:09:26.441Z,2.67
2022-11-16T13:12:30.456Z,2.40
2022-11-16T13:15:35.896Z,2.10
2022-11-16T13:18:41.532Z,1.90
2022-11-16T13:22:02.646Z,2.08
2022-11-16T13:25:17.454Z,2.08
2022-11-16T13:28:37.929Z,2.05
2022-11-16T13:31:53.477Z,1.83
2022-11-16T13:34:57.197Z,2.05
2022-11-16T13:37:58.727Z,1.80
2022-11-16T13:41:31.362Z,1.90
2022-11-16T13:44:33.560Z,2.40
2022-11-16T13:47:37.062Z,2.50
2022-11-16T13:50:38.899Z,2.50
2022-11-16T13:54:43.331Z,2.80
2022-11-16T13:57:24.635Z,2.80
2022-11-16T14:00:35.743Z,2.20
2022-11-16T14:03:39.495Z,2.08
2022-11-16T14:06:43.808Z,2.72
2022-11-16T14:09:48.343Z,3.10
2022-11-16T14:12:56.644Z,2.93
2022-11-16T14:16:19.441Z,3.00
2022-11-16T14:19:49.238Z,12.20
2022-11-16T14:22:58.150Z,28.03
2022-11-16T14:26:02.464Z,54.10
2022-11-16T14:29:27.325Z,57.58
2022-11-16T14:32:43.354Z,36.60
2022-11-16T14:35:52.525Z,21.83
2022-11-16T14:38:54.156Z,13.77
2022-11-16T14:42:00.570Z,5.43
2022-11-16T14:45:11.790Z,4.00
2022-11-16T14:48:17.031Z,4.57
2022-11-16T14:51:24.625Z,4.13
2022-11-16T14:54:26.549Z,4.30
2022-11-16T14:57:28.523Z,4.97
2022-11-16T15:00:30.420Z,8.05
2022-11-16T15:03:38.939Z,8.05
2022-11-16T15:06:47.061Z,7.88
2022-11-16T15:09:52.397Z,7.30
2022-11-16T15:12:55.698Z,6.80
2022-11-16T15:16:15.674Z,6.97
2022-11-16T15:19:17.236Z,6.20
2022-11-16T15:22:19.115Z,6.03
2022-11-16T15:25:26.836Z,6.10
2022-11-16T15:28:31.639Z,6.30
2022-11-16T15:31:34.416Z,7.10
2022-11-16T15:34:39.200Z,8.10
2022-11-16T15:37:40.741Z,6.93
2022-11-16T15:41:05.547Z,6.63
2022-11-16T15:44:14.482Z,8.32
2022-11-16T15:47:17.176Z,7.80
2022-11-16T15:50:19.371Z,6.45
2022-11-16T15:53:39.412Z,6.73
2022-11-16T15:56:41.670Z,6.35
2022-11-16T15:59:48.676Z,6.60
2022-11-16T16:02:51.460Z,7.60
2022-11-16T16:05:54.562Z,7.90
2022-11-16T16:09:06.245Z,9.07
2022-11-16T16:12:22.426Z,9.07
2022-11-16T16:15:36.664Z,8.88
2022-11-16T16:18:45.473Z,7.60
2022-11-16T16:21:47.121Z,6.50
2022-11-16T16:24:48.653Z,6.33
2022-11-16T16:27:50.269Z,6.38
2022-11-16T16:30:52.405Z,6.32
2022-11-16T16:33:55.556Z,6.23
2022-11-16T16:36:57.229Z,6.25
2022-11-16T16:39:58.871Z,6.53
2022-11-16T16:43:00.398Z,7.80
2022-11-16T16:46:03.237Z,9.43
2022-11-16T16:49:04.744Z,10.45
2022-11-16T16:52:07.456Z,10.85
2022-11-16T16:55:09.112Z,10.67
2022-11-16T16:58:13.128Z,10.98
2022-11-16T17:01:14.754Z,9.48
2022-11-16T17:04:16.352Z,10.13
2022-11-16T17:07:18.026Z,8.52
2022-11-16T17:10:19.612Z,9.10
2022-11-16T17:13:21.115Z,8.90
2022-11-16T17:16:23.126Z,8.77
2022-11-16T17:19:24.781Z,8.15
2022-11-16T17:22:26.296Z,8.18
2022-11-16T17:25:27.946Z,8.60
2022-11-16T17:28:29.494Z,9.45
2022-11-16T17:31:31.183Z,10.35
2022-11-16T17:34:33.845Z,11.23
2022-11-16T17:37:35.382Z,12.57
2022-11-16T17:40:37.020Z,13.05
2022-11-16T17:43:39.091Z,14.68
2022-11-16T17:46:40.611Z,15.18
2022-11-16T17:49:42.259Z,12.38
2022-11-16T17:52:43.805Z,11.25
2022-11-16T17:55:45.344Z,12.60
2022-11-16T17:58:47.243Z,12.98
2022-11-16T18:01:49.534Z,12.25
2022-11-16T18:04:51.567Z,12.03
2022-11-16T18:07:53.205Z,12.52
2022-11-16T18:10:54.769Z,12.02
2022-11-16T18:14:00.367Z,12.25
2022-11-16T18:17:01.930Z,10.32
2022-11-16T18:20:04.785Z,9.80
2022-11-16T18:23:06.312Z,9.82
2022-11-16T18:26:13.705Z,9.50
2022-11-16T18:29:18.531Z,8.23
2022-11-16T18:32:20.117Z,8.68
2022-11-16T18:35:21.687Z,11.57
2022-11-16T18:38:23.281Z,12.88
2022-11-16T18:41:27.063Z,12.40
2022-11-16T18:44:28.581Z,12.60
2022-11-16T18:47:30.175Z,14.60
2022-11-16T18:50:31.704Z,16.50
2022-11-16T18:53:33.842Z,16.73
2022-11-16T18:56:36.231Z,14.53
2022-11-16T18:59:38.122Z,11.95
2022-11-16T19:02:39.624Z,11.27
2022-11-16T19:05:41.379Z,12.70
2022-11-16T19:08:43.484Z,12.45
2022-11-16T19:11:45.185Z,12.98
2022-11-16T19:14:46.708Z,12.25
2022-11-16T19:18:19.449Z,13.48
2022-11-16T19:21:14.772Z,14.00
2022-11-16T19:24:16.361Z,15.27
2022-11-16T19:27:17.855Z,14.53
2022-11-16T19:30:19.725Z,15.68
2022-11-16T19:33:21.344Z,14.32
2022-11-16T19:36:24.159Z,13.60
2022-11-16T19:39:26.561Z,14.50
2022-11-16T19:42:28.296Z,14.27
2022-11-16T19:45:29.863Z,15.70
2022-11-16T19:48:34.753Z,15.50
2022-11-16T19:51:36.383Z,16.60
2022-11-16T19:54:37.911Z,16.95
2022-11-16T19:57:39.439Z,16.27
2022-11-16T20:00:40.997Z,15.27
2022-11-16T20:03:42.740Z,14.35
2022-11-16T20:06:44.313Z,14.37
2022-11-16T20:09:50.540Z,13.25
2022-11-16T20:12:56.661Z,12.88
2022-11-16T20:16:01.249Z,13.02
2022-11-16T20:19:03.668Z,12.90
2022-11-16T20:22:05.220Z,15.63
2022-11-16T20:25:06.993Z,17.40
2022-11-16T20:28:09.498Z,17.67
2022-11-16T20:31:16.704Z,18.08
2022-11-16T20:34:20.264Z,17.83
2022-11-16T20:37:21.888Z,18.97
2022-11-16T20:40:23.468Z,18.95
2022-11-16T20:43:24.977Z,20.25
2022-11-16T20:46:29.231Z,19.52
2022-11-16T20:49:30.814Z,19.98
2022-11-16T20:52:32.320Z,18.50
2022-11-16T20:55:33.873Z,17.55
2022-11-16T20:58:35.561Z,17.77
2022-11-16T21:01:37.351Z,17.27
2022-11-16T21:04:38.940Z,17.60
2022-11-16T21:07:41.742Z,18.87
2022-11-16T21:10:44.079Z,18.92
2022-11-16T21:14:05.900Z,19.40
2022-11-16T21:17:07.462Z,19.02
2022-11-16T21:20:26.457Z,18.88
2022-11-16T21:23:31.769Z,18.58
2022-11-16T21:26:34.044Z,17.50
2022-11-16T21:29:35.543Z,15.93
2022-11-16T21:32:37.043Z,13.98
2022-11-16T21:35:38.577Z,12.52
2022-11-16T21:38:40.411Z,13.13
2022-11-16T21:41:41.960Z,11.70
2022-11-16T21:44:43.517Z,11.73
2022-11-16T21:47:45.057Z,11.50
2022-11-16T21:50:46.845Z,10.02
2022-11-16T21:53:48.726Z,11.95
2022-11-16T21:56:50.211Z,12.80
2022-11-16T21:59:51.728Z,11.53
2022-11-16T22:02:53.691Z,12.75
2022-11-16T22:06:14.737Z,12.75
2022-11-16T22:09:16.823Z,11.87
2022-11-16T22:12:18.310Z,11.95
2022-11-16T22:15:19.829Z,12.48
2022-11-16T22:18:21.345Z,13.05
2022-11-16T22:21:22.870Z,11.85
2022-11-16T22:24:24.374Z,12.32
2022-11-16T22:27:25.943Z,11.50
2022-11-16T22:30:27.528Z,11.90
2022-11-16T22:33:29.995Z,11.57
2022-11-16T22:36:31.512Z,11.77
2022-11-16T22:39:33.075Z,10.43
2022-11-16T22:42:34.589Z,10.48
2022-11-16T22:45:36.123Z,10.13
2022-11-16T22:48:39.658Z,10.80
2022-11-16T22:51:41.178Z,11.30
2022-11-16T22:54:42.691Z,11.93
2022-11-16T22:57:44.194Z,11.13
2022-11-16T23:00:45.691Z,12.50
2022-11-16T23:03:47.784Z,12.80
2022-11-16T23:06:49.519Z,12.50
2022-11-16T23:09:51.133Z,10.50
2022-11-16T23:13:11.902Z,10.60
2022-11-16T23:16:13.412Z,9.65
2022-11-16T23:19:35.979Z,9.70
2022-11-16T23:22:56.384Z,9.23
2022-11-16T23:26:16.393Z,8.70
2022-11-16T23:29:17.937Z,7.80
2022-11-16T23:32:19.438Z,8.87
2022-11-16T23:35:21.403Z,8.55
2022-11-16T23:38:22.918Z,7.53
2022-11-16T23:41:43.175Z,7.60
2022-11-16T23:44:44.711Z,8.43
2022-11-16T23:47:46.239Z,9.55
2022-11-16T23:50:47.895Z,8.60
2022-11-16T23:53:53.320Z,9.00
2022-11-16T23:56:54.917Z,9.10
2022-11-16T23:59:56.443Z,8.60
